createdAt,value
2022-08-18T00:02:35.617Z,27.70
2022-08-18T00:08:48.367Z,27.60
2022-08-18T00:15:06.663Z,27.30
2022-08-18T00:21:22.643Z,27.10
2022-08-18T00:27:36.022Z,27.00
2022-08-18T00:33:50.207Z,26.90
2022-08-18T00:40:02.903Z,26.80
2022-08-18T00:46:18.257Z,26.70
2022-08-18T00:58:52.059Z,26.40
2022-08-18T01:05:08.729Z,26.40
2022-08-18T01:11:21.050Z,26.40
2022-08-18T01:18:00.675Z,26.30
2022-08-18T01:24:19.795Z,26.20
2022-08-18T01:30:30.942Z,26.10
2022-08-18T01:36:44.664Z,26.10
2022-08-18T01:42:58.971Z,26.00
2022-08-18T01:49:15.098Z,25.90
2022-08-18T01:55:30.831Z,25.90
2022-08-18T02:01:50.331Z,25.80
2022-08-18T02:07:59.602Z,25.70
2022-08-18T02:14:16.726Z,25.60
2022-08-18T02:20:30.990Z,25.50
2022-08-18T02:26:45.681Z,25.50
2022-08-18T02:33:00.039Z,25.50
2022-08-18T02:39:14.143Z,25.40
2022-08-18T02:45:28.822Z,25.40
2022-08-18T02:51:42.145Z,25.30
2022-08-18T02:57:57.183Z,25.20
2022-08-18T03:04:11.528Z,25.20
2022-08-18T03:10:31.396Z,25.20
2022-08-18T03:16:37.723Z,25.10
2022-08-18T03:22:50.198Z,25.10
2022-08-18T03:29:06.327Z,25.00
2022-08-18T03:35:21.163Z,25.00
2022-08-18T03:41:59.090Z,25.00
2022-08-18T03:47:53.648Z,24.90
2022-08-18T03:54:09.321Z,24.90
2022-08-18T04:00:25.965Z,24.90
2022-08-18T04:06:36.163Z,24.80
2022-08-18T04:12:50.440Z,24.70
2022-08-18T04:19:06.649Z,24.70
2022-08-18T04:25:18.173Z,24.60
2022-08-18T04:31:31.927Z,24.60
2022-08-18T04:37:46.224Z,24.50
2022-08-18T04:44:00.109Z,24.40
2022-08-18T04:50:18.678Z,24.40
2022-08-18T04:56:35.982Z,24.40
2022-08-18T05:02:49.256Z,24.30
2022-08-18T05:09:02.641Z,24.30
2022-08-18T05:15:18.349Z,24.10
2022-08-18T05:21:32.497Z,24.30
2022-08-18T05:27:47.564Z,24.50
2022-08-18T05:34:03.893Z,24.70
2022-08-18T05:40:16.074Z,24.70
2022-08-18T05:46:29.047Z,24.80
2022-08-18T05:52:45.778Z,24.80
2022-08-18T05:58:58.949Z,24.90
2022-08-18T06:05:14.234Z,24.90
2022-08-18T06:11:27.073Z,24.90
2022-08-18T06:17:52.660Z,24.90
2022-08-18T06:24:10.551Z,24.90
2022-08-18T06:30:26.493Z,25.00
2022-08-18T06:36:42.806Z,25.00
2022-08-18T06:42:55.705Z,24.90
2022-08-18T06:49:12.546Z,25.00
2022-08-18T06:55:27.099Z,25.00
2022-08-18T07:01:39.874Z,25.10
2022-08-18T07:07:54.298Z,25.00
2022-08-18T07:14:17.235Z,24.90
2022-08-18T07:20:30.776Z,25.00
2022-08-18T07:26:59.856Z,25.00
2022-08-18T07:33:23.828Z,25.00
2022-08-18T07:39:36.010Z,24.90
2022-08-18T07:45:50.575Z,24.90
2022-08-18T07:52:07.028Z,25.00
2022-08-18T07:58:25.168Z,25.00
2022-08-18T08:04:36.005Z,25.00
2022-08-18T08:10:53.342Z,24.80
2022-08-18T08:17:08.801Z,24.90
2022-08-18T08:23:26.487Z,24.90
2022-08-18T08:29:43.323Z,25.00
2022-08-18T08:35:56.638Z,24.90
2022-08-18T08:42:31.400Z,24.80
2022-08-18T08:48:30.967Z,24.80
2022-08-18T08:54:47.985Z,24.90
2022-08-18T09:00:58.622Z,24.90
2022-08-18T09:07:17.491Z,24.90
2022-08-18T09:13:46.456Z,24.80
2022-08-18T09:20:14.322Z,24.80
2022-08-18T09:26:39.319Z,24.80
2022-08-18T09:33:01.211Z,24.90
2022-08-18T09:39:40.821Z,24.70
2022-08-18T09:46:02.133Z,24.70
2022-08-18T09:53:04.796Z,24.80
2022-08-18T09:59:20.442Z,24.80
2022-08-18T10:05:34.062Z,24.70
2022-08-18T10:12:30.807Z,24.60
2022-08-18T10:18:56.474Z,24.60
2022-08-18T10:25:23.192Z,24.80
2022-08-18T10:31:27.762Z,24.80
2022-08-18T10:37:43.469Z,24.70
2022-08-18T10:43:58.018Z,24.70
2022-08-18T10:50:13.144Z,24.70
2022-08-18T10:56:32.572Z,24.80
2022-08-18T11:02:52.344Z,24.90
2022-08-18T11:09:08.639Z,24.60
2022-08-18T11:15:26.684Z,24.60
2022-08-18T11:21:42.305Z,24.70
2022-08-18T11:27:54.256Z,24.70
2022-08-18T11:34:08.472Z,24.70
2022-08-18T11:41:08.827Z,24.60
2022-08-18T11:46:52.058Z,24.60
2022-08-18T11:53:07.325Z,24.70
2022-08-18T11:59:54.797Z,24.80
2022-08-18T12:05:55.831Z,24.70
2022-08-18T12:12:04.183Z,24.60
2022-08-18T12:18:25.980Z,24.80
2022-08-18T12:24:36.457Z,24.90
2022-08-18T12:30:48.736Z,25.00
2022-08-18T12:37:10.335Z,24.90
2022-08-18T12:43:18.433Z,24.90
2022-08-18T12:49:34.228Z,24.90
2022-08-18T12:55:47.590Z,25.00
2022-08-18T13:02:02.321Z,25.00
2022-08-18T13:08:30.236Z,25.00
2022-08-18T13:14:33.667Z,25.10
2022-08-18T13:20:46.540Z,25.40
2022-08-18T13:27:02.008Z,25.50
2022-08-18T13:33:53.585Z,25.70
2022-08-18T13:39:34.636Z,25.80
2022-08-18T13:45:53.477Z,25.90
2022-08-18T13:52:12.221Z,26.00
2022-08-18T13:58:22.524Z,26.10
2022-08-18T14:04:36.613Z,26.20
2022-08-18T14:10:50.683Z,26.30
2022-08-18T14:17:03.384Z,26.40
2022-08-18T14:23:33.358Z,26.40
2022-08-18T14:29:49.884Z,26.50
2022-08-18T14:36:05.894Z,26.60
2022-08-18T14:42:16.932Z,26.70
2022-08-18T14:48:29.902Z,26.70
2022-08-18T14:54:46.077Z,26.70
2022-08-18T15:00:58.381Z,26.80
2022-08-18T15:07:11.141Z,26.90
2022-08-18T15:13:26.483Z,27.00
2022-08-18T15:19:59.164Z,27.00
2022-08-18T15:25:55.192Z,27.10
2022-08-18T15:32:11.057Z,27.10
2022-08-18T15:38:27.026Z,27.20
2022-08-18T15:44:41.950Z,27.20
2022-08-18T15:50:56.932Z,27.30
2022-08-18T15:57:23.561Z,27.30
2022-08-18T16:03:25.985Z,27.40
2022-08-18T16:09:40.038Z,27.40
2022-08-18T16:15:54.853Z,27.40
2022-08-18T16:22:08.886Z,27.50
2022-08-18T16:28:35.024Z,27.50
2022-08-18T16:34:38.988Z,27.50
2022-08-18T16:40:52.929Z,27.60
2022-08-18T16:47:06.946Z,27.60
2022-08-18T16:53:20.912Z,27.60
2022-08-18T16:59:50.094Z,27.60
2022-08-18T17:06:10.705Z,27.70
2022-08-18T17:12:23.977Z,27.70
2022-08-18T17:18:36.738Z,27.70
2022-08-18T17:24:50.733Z,27.80
2022-08-18T17:31:03.757Z,27.70
2022-08-18T17:37:20.235Z,27.70
2022-08-18T17:43:34.187Z,27.70
2022-08-18T17:50:27.295Z,27.80
2022-08-18T17:56:21.712Z,27.80
2022-08-18T18:02:36.561Z,27.70
2022-08-18T18:09:05.520Z,27.80
2022-08-18T18:15:18.249Z,27.70
2022-08-18T18:21:56.582Z,27.80
2022-08-18T18:27:46.121Z,27.80
2022-08-18T18:34:03.112Z,27.80
2022-08-18T18:40:25.175Z,27.80
2022-08-18T18:46:38.164Z,27.80
2022-08-18T18:52:55.442Z,27.80
2022-08-18T18:59:14.523Z,27.90
2022-08-18T19:05:31.165Z,27.90
2022-08-18T19:11:47.955Z,27.90
2022-08-18T19:18:04.639Z,27.90
2022-08-18T19:24:20.113Z,27.90
2022-08-18T19:30:34.578Z,27.90
2022-08-18T19:36:50.174Z,27.90
2022-08-18T19:43:06.855Z,27.90
2022-08-18T19:49:25.346Z,27.90
2022-08-18T19:55:42.903Z,27.90
2022-08-18T20:02:02.658Z,27.90
2022-08-18T20:08:52.462Z,27.90
2022-08-18T20:15:11.638Z,27.90
2022-08-18T20:21:43.318Z,27.90
2022-08-18T20:27:56.686Z,28.00
2022-08-18T20:34:14.671Z,28.00
2022-08-18T20:40:45.650Z,27.90
2022-08-18T20:47:00.694Z,27.90
2022-08-18T20:53:17.494Z,28.00
2022-08-18T20:59:33.454Z,28.00
2022-08-18T21:05:49.328Z,28.00
2022-08-18T21:12:03.249Z,28.00
2022-08-18T21:18:20.160Z,28.00
2022-08-18T21:24:36.464Z,28.00
2022-08-18T21:31:43.007Z,28.00
2022-08-18T21:37:17.166Z,28.00
2022-08-18T21:43:49.297Z,28.00
2022-08-18T21:56:47.354Z,28.10
2022-08-18T22:03:16.685Z,28.10
2022-08-18T22:09:45.245Z,28.10
2022-08-18T22:15:58.770Z,28.10
2022-08-18T22:22:30.124Z,28.10
2022-08-18T22:28:45.682Z,28.10
2022-08-18T22:35:00.020Z,27.80
2022-08-18T22:41:14.052Z,27.50
2022-08-18T22:47:28.302Z,27.30
2022-08-18T22:53:42.713Z,27.40
2022-08-18T22:59:58.100Z,27.60
2022-08-18T23:06:14.095Z,27.70
2022-08-18T23:12:26.465Z,27.80
2022-08-18T23:18:40.740Z,27.80
2022-08-18T23:24:54.952Z,27.80
2022-08-18T23:31:09.033Z,27.80
2022-08-18T23:37:24.081Z,27.90
2022-08-18T23:43:39.670Z,27.80
2022-08-18T23:49:54.093Z,27.90
2022-08-18T23:56:08.596Z,27.90
